Time;durP1;ratioP1;P1;durP2;ratioP2;P2;SDS_P1;SDS_P2;PMS_P1;PMS_P2;Temp;Humidity;BMP_temperature;BMP_pressure;BME280_temperature;BME280_humidity;BME280_pressure;Samples;Min_cycle;Max_cycle;Signal;HPM_P1;HPM_P2
2022/01/09 04:28:00;;;;;;;10.02;2.65;;;23.60;85.80;;;;;;5070116;28;20415;-76
2022/01/09 04:30:27;;;;;;;11.55;2.50;;;23.60;85.10;;;;;;5072772;28;20431;-80
2022/01/09 04:32:55;;;;;;;12.65;2.85;;;23.60;85.40;;;;;;5095408;28;20770;-78
2022/01/09 04:35:22;;;;;;;8.05;2.75;;;23.60;85.60;;;;;;5091219;28;20619;-78
2022/01/09 04:37:49;;;;;;;11.18;3.60;;;23.70;85.80;;;;;;5091605;28;20032;-80
2022/01/09 04:40:19;;;;;;;9.35;3.35;;;23.70;85.80;;;;;;5091200;28;20035;-81
2022/01/09 04:42:50;;;;;;;9.02;2.92;;;23.70;85.90;;;;;;5093349;28;20107;-77
2022/01/09 04:45:19;;;;;;;10.32;2.83;;;23.70;85.40;;;;;;5073441;28;20447;-79
2022/01/09 04:47:47;;;;;;;13.07;2.40;;;23.70;85.10;;;;;;5096767;28;20032;-75
2022/01/09 04:50:23;;;;;;;9.80;2.92;;;23.80;85.60;;;;;;5095026;28;20423;-77
2022/01/09 04:52:58;;;;;;;7.43;2.65;;;23.80;84.60;;;;;;5091154;28;20472;-78
2022/01/09 04:55:26;;;;;;;10.07;3.30;;;23.80;84.60;;;;;;5079292;28;20048;-76
2022/01/09 04:57:53;;;;;;;8.00;2.85;;;23.90;84.60;;;;;;5089111;28;20040;-76
2022/01/09 05:00:20;;;;;;;8.57;2.70;;;23.90;84.90;;;;;;5072873;28;20055;-76
2022/01/09 05:02:47;;;;;;;11.43;3.20;;;24.00;85.10;;;;;;5091168;28;20059;-77
2022/01/09 05:05:14;;;;;;;7.70;2.60;;;24.00;84.70;;;;;;5104373;28;20097;-76
2022/01/09 05:07:42;;;;;;;6.38;2.35;;;24.10;83.80;;;;;;5097788;28;20024;-74
2022/01/09 05:10:09;;;;;;;9.18;2.78;;;24.00;84.40;;;;;;5087777;28;20032;-73
2022/01/09 05:12:37;;;;;;;11.65;2.90;;;24.10;84.50;;;;;;5071456;28;20036;-74
2022/01/09 06:02:12;;;;;;;9.35;2.35;;;23.80;85.70;;;;;;5096048;28;20074;-73
2022/01/09 06:04:40;;;;;;;6.28;2.30;;;23.80;85.70;;;;;;5094863;28;20431;-72
2022/01/09 06:07:07;;;;;;;8.48;2.85;;;23.80;85.90;;;;;;5079187;28;20036;-74
2022/01/09 07:08:34;;;;;;;7.32;2.22;;;23.80;85.80;;;;;;5072063;28;20182;-76
2022/01/09 07:11:02;;;;;;;6.07;2.53;;;23.70;85.90;;;;;;5067379;28;20114;-77
2022/01/09 07:13:29;;;;;;;7.55;2.40;;;23.70;86.00;;;;;;5064033;28;20387;-77
2022/01/09 07:15:56;;;;;;;7.18;2.60;;;23.70;86.00;;;;;;5071461;28;20444;-73
2022/01/09 07:18:24;;;;;;;8.25;2.25;;;23.70;86.20;;;;;;5070032;28;20391;-74
2022/01/09 07:20:51;;;;;;;8.35;2.67;;;23.70;86.20;;;;;;5070454;28;20056;-76
2022/01/09 07:23:18;;;;;;;5.80;2.10;;;23.70;86.30;;;;;;5071471;28;20017;-74
2022/01/09 07:25:45;;;;;;;8.25;2.03;;;23.70;86.50;;;;;;5054244;28;20029;-74
2022/01/09 07:28:12;;;;;;;9.15;2.38;;;23.70;86.40;;;;;;5070499;28;20032;-74
2022/01/09 07:30:40;;;;;;;9.13;2.67;;;23.60;86.60;;;;;;5044345;28;20072;-81
2022/01/09 07:33:07;;;;;;;8.82;2.47;;;23.70;86.60;;;;;;5070823;28;20021;-75
2022/01/09 07:35:35;;;;;;;6.30;2.15;;;23.70;86.60;;;;;;5070104;28;20398;-74
2022/01/09 07:38:02;;;;;;;8.35;2.30;;;23.70;86.80;;;;;;5067430;28;20033;-73
2022/01/09 07:40:29;;;;;;;7.68;2.35;;;23.70;86.90;;;;;;5071056;28;20040;-74
2022/01/09 07:42:56;;;;;;;8.98;2.92;;;23.60;86.80;;;;;;5069930;28;20043;-74
2022/01/09 07:45:26;;;;;;;8.52;2.33;;;23.60;87.10;;;;;;5070753;28;20082;-73
2022/01/09 07:47:54;;;;;;;7.20;2.60;;;23.60;87.10;;;;;;5052406;28;20070;-74
2022/01/09 07:50:22;;;;;;;14.20;2.90;;;23.70;87.10;;;;;;5070603;28;20032;-74
2022/01/09 07:52:50;;;;;;;11.18;2.53;;;23.70;87.20;;;;;;5066912;28;20033;-73
2022/01/09 07:55:19;;;;;;;12.88;3.13;;;23.70;87.30;;;;;;5069643;28;21444;-74
2022/01/09 07:57:47;;;;;;;7.38;2.13;;;23.70;87.40;;;;;;5071396;28;20110;-74
2022/01/09 08:00:14;;;;;;;6.93;2.35;;;23.70;87.40;;;;;;5069881;28;20465;-74
2022/01/09 08:02:42;;;;;;;11.38;3.10;;;23.60;87.50;;;;;;5070719;28;20047;-75
2022/01/09 08:05:10;;;;;;;11.45;2.72;;;23.60;87.60;;;;;;5052204;28;20029;-74
2022/01/09 08:07:37;;;;;;;12.10;3.00;;;23.60;87.80;;;;;;5043138;28;20043;-74
2022/01/09 09:37:48;;;;;;;14.10;3.22;;;23.10;92.40;;;;;;5080393;28;20051;-76
2022/01/09 09:40:15;;;;;;;11.48;2.80;;;23.00;92.30;;;;;;5080730;28;20563;-75
2022/01/09 09:42:42;;;;;;;8.93;2.85;;;23.00;92.40;;;;;;5086781;28;20040;-74
2022/01/09 09:45:11;;;;;;;10.32;3.40;;;23.00;92.40;;;;;;5078390;28;20524;-72
2022/01/09 09:47:38;;;;;;;8.63;2.72;;;23.00;92.60;;;;;;5079443;28;20667;-76
2022/01/09 09:50:07;;;;;;;14.13;3.20;;;23.10;92.60;;;;;;5048781;28;20093;-74
2022/01/09 09:52:35;;;;;;;13.23;3.33;;;23.00;92.60;;;;;;5087849;28;20024;-79
2022/01/09 09:55:11;;;;;;;12.48;3.08;;;23.10;92.80;;;;;;5066449;28;20485;-79
2022/01/09 09:57:38;;;;;;;9.52;2.83;;;23.10;92.80;;;;;;5054584;28;20111;-77
2022/01/09 10:00:16;;;;;;;9.93;2.70;;;23.10;92.80;;;;;;5083296;28;20028;-78
2022/01/09 10:02:47;;;;;;;14.55;3.15;;;23.00;92.70;;;;;;5084694;28;20145;-81
2022/01/09 10:05:19;;;;;;;12.85;2.78;;;23.10;92.80;;;;;;5088308;28;20105;-76
2022/01/09 10:07:47;;;;;;;12.88;2.60;;;23.10;92.80;;;;;;5087197;28;20101;-77
2022/01/09 10:10:18;;;;;;;9.63;3.03;;;23.10;92.80;;;;;;5067877;28;20028;-78
2022/01/09 10:12:46;;;;;;;15.02;3.67;;;23.10;92.80;;;;;;5086540;28;20032;-76
2022/01/09 10:15:17;;;;;;;12.23;3.03;;;23.10;92.70;;;;;;5080097;28;20048;-75
2022/01/09 10:17:46;;;;;;;9.02;3.40;;;23.10;92.80;;;;;;5080280;28;20392;-79
2022/01/09 10:20:15;;;;;;;13.02;3.00;;;23.10;92.80;;;;;;5080393;28;20540;-77
2022/01/09 10:22:44;;;;;;;12.27;3.17;;;23.10;93.00;;;;;;5078216;28;20442;-81
2022/01/09 10:25:49;;;;;;;10.52;2.70;;;23.10;92.90;;;;;;5089147;28;20441;-77
2022/01/09 10:28:17;;;;;;;10.93;3.00;;;23.10;92.80;;;;;;5055549;28;20055;-77
2022/01/09 10:30:46;;;;;;;9.80;3.05;;;23.10;92.70;;;;;;5084688;28;20029;-77
2022/01/09 10:33:17;;;;;;;9.68;2.88;;;23.00;92.70;;;;;;5075789;28;20340;-76
2022/01/09 10:35:46;;;;;;;12.40;3.00;;;23.00;92.60;;;;;;5087005;28;20128;-79
2022/01/09 10:48:16;;;;;;;13.20;3.72;;;23.00;92.50;;;;;;5061086;28;20191;-74
2022/01/09 10:50:44;;;;;;;15.88;3.45;;;23.00;92.50;;;;;;5045412;28;20499;-70
2022/01/09 10:53:21;;;;;;;10.75;2.95;;;23.00;92.60;;;;;;5051649;28;20446;-70
2022/01/09 10:56:01;;;;;;;7.13;2.70;;;23.00;92.50;;;;;;5051958;28;20037;-70
2022/01/09 10:58:28;;;;;;;9.73;2.60;;;23.00;92.40;;;;;;5053160;28;20044;-73
2022/01/09 11:01:13;;;;;;;10.48;2.67;;;23.00;92.50;;;;;;5055464;28;20067;-71
2022/01/09 11:03:42;;;;;;;9.50;2.72;;;23.00;92.50;;;;;;5051396;28;20518;-73
2022/01/09 11:06:09;;;;;;;8.90;2.80;;;23.10;92.50;;;;;;5052721;28;20100;-74
2022/01/09 11:08:37;;;;;;;13.73;2.60;;;23.10;92.50;;;;;;5023331;28;20559;-76
2022/01/09 11:11:10;;;;;;;7.40;2.75;;;23.10;92.40;;;;;;5050932;28;20040;-74
2022/01/09 11:13:38;;;;;;;8.50;2.60;;;23.10;92.40;;;;;;5050695;28;20587;-75
2022/01/09 11:18:51;;;;;;;9.55;2.92;;;23.10;92.40;;;;;;5034925;28;20088;-71
2022/01/09 11:21:18;;;;;;;15.13;3.63;;;23.10;92.40;;;;;;5031250;28;20034;-77
2022/01/09 11:24:11;;;;;;;11.10;2.45;;;23.20;92.40;;;;;;5020619;28;20033;-77
2022/01/09 11:26:52;;;;;;;10.20;2.90;;;23.20;92.50;;;;;;5044328;28;20037;-78
2022/01/09 11:30:03;;;;;;;7.80;2.60;;;23.20;92.40;;;;;;5019196;28;20115;-78
2022/01/09 11:32:36;;;;;;;12.27;3.15;;;23.10;92.40;;;;;;5050168;28;20040;-79
2022/01/09 11:35:09;;;;;;;11.68;3.28;;;23.10;92.70;;;;;;5040124;28;20263;-78
2022/01/09 11:37:48;;;;;;;13.10;3.00;;;23.00;92.60;;;;;;5041658;28;20075;-77
2022/01/09 11:40:27;;;;;;;9.85;2.85;;;23.00;92.80;;;;;;5033252;28;20053;-77
2022/01/09 11:43:01;;;;;;;11.30;2.72;;;22.90;92.80;;;;;;5048442;28;20510;-78
2022/01/09 11:45:47;;;;;;;16.83;3.33;;;22.90;92.80;;;;;;5050158;28;20033;-79
2022/01/09 11:48:42;;;;;;;8.52;2.80;;;22.90;92.90;;;;;;5051767;28;20365;-76
2022/01/09 11:51:10;;;;;;;12.88;3.45;;;23.00;93.00;;;;;;5051677;28;20025;-76
2022/01/09 11:53:56;;;;;;;13.93;3.20;;;23.00;93.00;;;;;;5068735;28;20029;-76
2022/01/09 11:56:48;;;;;;;16.95;3.35;;;23.00;93.10;;;;;;5064039;28;20079;-77
2022/01/09 11:59:35;;;;;;;11.95;3.42;;;23.00;93.10;;;;;;5066070;28;20059;-75
2022/01/09 12:02:06;;;;;;;11.27;3.80;;;23.00;93.10;;;;;;5071580;28;20036;-76
2022/01/09 12:07:01;;;;;;;13.25;3.50;;;23.00;93.10;;;;;;5069847;28;20029;-75
2022/01/09 12:09:41;;;;;;;9.25;3.30;;;23.00;93.10;;;;;;5066527;28;20028;-74
2022/01/09 12:12:35;;;;;;;12.85;3.33;;;23.00;93.00;;;;;;5067031;28;20283;-76
2022/01/09 12:15:06;;;;;;;10.73;2.78;;;23.00;93.00;;;;;;5045822;28;20049;-76
2022/01/09 12:45:22;;;;;;;12.23;3.20;;;23.00;92.90;;;;;;5086134;28;20062;-76
2022/01/09 12:47:49;;;;;;;15.23;2.75;;;23.00;92.90;;;;;;5068432;28;20041;-76
2022/01/09 12:50:17;;;;;;;13.18;3.25;;;23.00;93.00;;;;;;5053368;28;20028;-75
2022/01/09 12:52:44;;;;;;;16.00;3.22;;;23.00;92.80;;;;;;5070220;28;20146;-76
2022/01/09 12:55:14;;;;;;;13.73;3.28;;;23.00;92.90;;;;;;5068706;28;20044;-75
2022/01/09 12:57:55;;;;;;;14.32;3.58;;;23.00;92.90;;;;;;5070031;28;20047;-75
2022/01/09 13:00:26;;;;;;;14.07;3.15;;;23.00;92.90;;;;;;5067618;28;20048;-76
2022/01/09 13:03:04;;;;;;;16.85;3.65;;;23.00;92.90;;;;;;5051147;28;20032;-75
2022/01/09 13:05:42;;;;;;;14.50;3.78;;;23.00;92.90;;;;;;5068937;28;20024;-76
2022/01/09 13:08:10;;;;;;;11.27;3.42;;;23.10;93.00;;;;;;5071173;28;20693;-74
2022/01/09 13:10:45;;;;;;;9.73;3.05;;;23.10;93.00;;;;;;5026314;28;20028;-75
2022/01/09 13:13:13;;;;;;;13.57;3.13;;;23.10;93.00;;;;;;5047601;28;20084;-76
2022/01/09 13:15:40;;;;;;;13.18;3.58;;;23.10;93.00;;;;;;5058491;28;20053;-75
2022/01/09 13:18:08;;;;;;;19.55;3.70;;;23.20;93.00;;;;;;5045238;28;20060;-76
2022/01/09 13:20:35;;;;;;;13.88;3.35;;;23.20;93.00;;;;;;5063551;28;20036;-75
2022/01/09 13:23:10;;;;;;;11.95;3.58;;;23.20;93.00;;;;;;5068258;28;20029;-75
2022/01/09 13:25:54;;;;;;;12.45;3.38;;;23.20;93.00;;;;;;5050952;28;20511;-76
2022/01/09 13:28:23;;;;;;;12.35;3.40;;;23.20;93.10;;;;;;5069672;28;20119;-75
2022/01/09 13:30:57;;;;;;;11.20;3.13;;;23.20;93.10;;;;;;5073319;28;20063;-75
2022/01/09 13:33:24;;;;;;;11.82;3.20;;;23.20;93.10;;;;;;5051791;28;20119;-76
2022/01/09 13:35:52;;;;;;;12.30;3.40;;;23.20;93.10;;;;;;5069091;28;20036;-74
2022/01/09 13:38:19;;;;;;;9.27;2.95;;;23.30;93.10;;;;;;5070396;28;20060;-74
2022/01/09 13:40:50;;;;;;;11.40;2.92;;;23.30;93.10;;;;;;5049877;28;20075;-74
2022/01/09 13:43:20;;;;;;;11.52;3.10;;;23.30;93.10;;;;;;5052790;28;20033;-75
2022/01/09 13:45:46;;;;;;;;;;;23.30;93.10;;;;;;5069731;28;20091;-75
2022/01/09 13:48:16;;;;;;;11.30;2.92;;;23.20;93.10;;;;;;5067802;28;19908;-75
2022/01/09 13:50:46;;;;;;;10.38;3.08;;;23.20;93.10;;;;;;5051211;28;20048;-75
2022/01/09 13:53:13;;;;;;;12.38;3.05;;;23.30;93.20;;;;;;5051889;28;20079;-75
2022/01/09 13:55:41;;;;;;;9.77;3.03;;;23.30;93.10;;;;;;5068516;28;20131;-75
2022/01/09 13:58:15;;;;;;;8.52;2.83;;;23.30;93.20;;;;;;5051540;28;20036;-76
2022/01/09 14:00:44;;;;;;;11.70;3.00;;;23.30;93.20;;;;;;5067535;28;20124;-75
2022/01/09 14:03:11;;;;;;;8.55;2.58;;;23.30;93.30;;;;;;5046615;28;20045;-76
2022/01/09 14:05:47;;;;;;;8.23;2.60;;;23.30;93.30;;;;;;5015907;28;20442;-76
2022/01/09 14:08:15;;;;;;;9.80;2.75;;;23.30;93.30;;;;;;5051777;28;20073;-75
2022/01/09 14:10:45;;;;;;;8.27;2.70;;;23.30;93.30;;;;;;5064661;28;20040;-76
2022/01/09 14:13:11;;;;;;;;;;;23.30;93.30;;;;;;5058151;28;20103;-76
2022/01/09 14:15:40;;;;;;;7.55;2.42;;;23.30;93.30;;;;;;5069878;28;19959;-76
2022/01/09 14:18:07;;;;;;;10.93;2.53;;;23.30;93.40;;;;;;5059174;28;20072;-75
2022/01/09 14:20:36;;;;;;;8.27;2.38;;;23.30;93.40;;;;;;5050818;28;20127;-75
2022/01/09 14:23:10;;;;;;;6.63;2.55;;;23.30;93.40;;;;;;5065205;28;20116;-76
2022/01/09 14:25:41;;;;;;;18.33;3.53;;;23.30;93.40;;;;;;5055321;28;20071;-76
2022/01/09 14:28:11;;;;;;;11.45;3.00;;;23.30;93.40;;;;;;5055351;28;20059;-75
2022/01/09 14:30:42;;;;;;;8.95;2.65;;;23.30;93.40;;;;;;5073485;28;20045;-76
2022/01/09 14:33:19;;;;;;;9.25;2.42;;;23.30;93.40;;;;;;5037493;28;20521;-75
2022/01/09 14:35:51;;;;;;;11.05;2.88;;;23.30;93.40;;;;;;5072729;28;20053;-75
2022/01/09 14:38:28;;;;;;;11.38;2.42;;;23.30;93.30;;;;;;5073041;28;20048;-76
2022/01/09 14:40:56;;;;;;;11.35;3.45;;;23.30;93.30;;;;;;5039870;28;20090;-76
2022/01/09 14:43:25;;;;;;;8.48;2.25;;;23.30;93.30;;;;;;5053276;28;20107;-77
2022/01/09 14:45:53;;;;;;;9.55;2.85;;;23.30;93.30;;;;;;5059326;28;20052;-76
2022/01/09 14:48:31;;;;;;;11.98;2.60;;;23.30;93.40;;;;;;5057463;28;20089;-76
2022/01/09 14:50:59;;;;;;;12.90;2.53;;;23.30;93.40;;;;;;5069629;28;20036;-76
2022/01/09 14:53:26;;;;;;;10.40;2.65;;;23.30;93.30;;;;;;5092752;28;20385;-76
2022/01/09 14:55:54;;;;;;;9.27;2.53;;;23.30;93.40;;;;;;5089170;28;20066;-75
2022/01/09 14:58:22;;;;;;;9.98;3.25;;;23.30;93.30;;;;;;5083091;28;20429;-76
2022/01/09 15:00:51;;;;;;;9.60;2.50;;;23.30;93.30;;;;;;5091549;28;20055;-76
2022/01/09 15:03:21;;;;;;;12.60;2.78;;;23.30;93.40;;;;;;5092625;28;20039;-76
2022/01/09 15:05:49;;;;;;;15.73;2.90;;;23.30;93.30;;;;;;5089988;28;20040;-76
2022/01/09 15:08:17;;;;;;;9.63;2.58;;;23.30;93.30;;;;;;5091249;28;20063;-76
2022/01/09 15:10:44;;;;;;;11.65;2.85;;;23.30;93.30;;;;;;5068614;28;20398;-76
2022/01/09 15:13:13;;;;;;;9.63;2.80;;;23.30;93.30;;;;;;5089187;28;20032;-77
2022/01/09 15:15:41;;;;;;;12.63;3.00;;;23.30;93.30;;;;;;5087636;28;20055;-76
2022/01/09 15:18:08;;;;;;;15.68;3.05;;;23.30;93.30;;;;;;5092450;28;20264;-76
2022/01/09 15:20:36;;;;;;;11.35;2.95;;;23.30;93.20;;;;;;5085457;28;20035;-76
2022/01/09 15:23:07;;;;;;;9.60;3.20;;;23.30;93.30;;;;;;5086035;28;20166;-77
2022/01/09 15:25:36;;;;;;;8.88;3.17;;;23.30;93.30;;;;;;5058795;28;20036;-76
2022/01/09 15:28:03;;;;;;;10.02;3.17;;;23.30;93.20;;;;;;5078894;28;20032;-76
2022/01/09 15:30:33;;;;;;;11.05;2.92;;;23.20;93.20;;;;;;5074191;28;20039;-76
2022/01/09 15:33:01;;;;;;;13.15;3.13;;;23.30;93.20;;;;;;5074733;28;20032;-76
2022/01/09 15:35:28;;;;;;;10.60;2.67;;;23.20;93.10;;;;;;5073948;28;20051;-75
2022/01/09 15:37:56;;;;;;;14.95;3.38;;;23.20;93.20;;;;;;5072860;28;20028;-75
2022/01/09 15:40:26;;;;;;;11.35;2.58;;;23.20;93.20;;;;;;5073093;28;20053;-76
2022/01/09 15:42:56;;;;;;;13.55;3.00;;;23.20;93.10;;;;;;5092617;28;20032;-75
2022/01/09 15:45:23;;;;;;;8.52;2.67;;;23.20;93.10;;;;;;5092206;28;20490;-74
2022/01/09 15:47:51;;;;;;;13.57;3.20;;;23.20;93.10;;;;;;5076969;28;20392;-75
2022/01/09 15:50:18;;;;;;;8.02;2.63;;;23.20;93.10;;;;;;5070544;28;20086;-74
2022/01/09 15:52:46;;;;;;;15.30;3.38;;;23.20;93.10;;;;;;5091816;28;20074;-75
2022/01/09 15:55:13;;;;;;;17.13;3.25;;;23.20;93.10;;;;;;5091609;28;20052;-75
2022/01/09 15:57:42;;;;;;;10.10;2.88;;;23.10;93.00;;;;;;5092419;28;20066;-75
2022/01/09 16:00:13;;;;;;;11.40;2.80;;;23.10;93.00;;;;;;5092539;28;20070;-75
2022/01/09 16:02:41;;;;;;;10.35;3.00;;;23.10;93.00;;;;;;5092017;28;20977;-75
2022/01/09 16:05:09;;;;;;;14.23;2.92;;;23.10;93.00;;;;;;5090711;28;20126;-76
2022/01/09 16:07:37;;;;;;;10.55;2.88;;;23.10;93.00;;;;;;5073470;28;20110;-75
2022/01/09 16:10:04;;;;;;;11.38;2.80;;;23.10;93.10;;;;;;5092283;28;20028;-77
2022/01/09 16:12:35;;;;;;;16.15;3.50;;;23.10;93.10;;;;;;5074676;28;20048;-76
2022/01/09 16:15:03;;;;;;;13.02;3.13;;;23.10;93.10;;;;;;5102167;28;20039;-76
2022/01/09 16:17:30;;;;;;;14.60;3.25;;;23.10;93.10;;;;;;5070632;28;20029;-76
2022/01/09 16:19:57;;;;;;;15.40;3.10;;;23.10;93.10;;;;;;5070054;28;20032;-75
2022/01/09 16:22:25;;;;;;;13.63;3.15;;;23.10;93.10;;;;;;5090837;28;20040;-75
2022/01/09 16:24:54;;;;;;;12.23;3.70;;;23.10;93.10;;;;;;5090716;28;20040;-76
2022/01/09 16:27:21;;;;;;;11.70;2.90;;;23.10;93.10;;;;;;5082943;28;20051;-76
2022/01/09 16:29:49;;;;;;;9.43;3.10;;;23.10;93.00;;;;;;5086437;28;20126;-75
2022/01/09 16:32:16;;;;;;;11.48;2.85;;;23.10;93.00;;;;;;5067412;28;20028;-75
2022/01/09 16:34:45;;;;;;;13.68;3.50;;;23.10;93.00;;;;;;5085763;28;20048;-75
2022/01/09 16:37:13;;;;;;;10.25;2.83;;;23.00;93.00;;;;;;5096274;28;20032;-76
2022/01/09 16:39:41;;;;;;;10.27;2.90;;;23.10;93.00;;;;;;5105464;28;20035;-75
2022/01/09 16:42:08;;;;;;;15.00;2.92;;;23.00;93.00;;;;;;5108096;28;20028;-75
2022/01/09 16:44:36;;;;;;;12.25;2.90;;;23.00;93.00;;;;;;5091597;28;20040;-74
2022/01/09 16:47:03;;;;;;;11.85;3.38;;;23.00;93.00;;;;;;5085240;28;20028;-75
2022/01/09 16:49:30;;;;;;;11.80;3.28;;;23.00;93.00;;;;;;5090473;28;20579;-75
2022/01/09 16:51:57;;;;;;;12.02;3.22;;;23.00;93.00;;;;;;5091170;28;20475;-75
2022/01/09 16:54:24;;;;;;;12.80;2.72;;;23.00;93.10;;;;;;5084148;28;20486;-75
2022/01/09 16:56:52;;;;;;;12.93;3.30;;;23.00;93.00;;;;;;5065814;28;20032;-75
2022/01/09 16:59:19;;;;;;;13.00;3.20;;;23.00;93.10;;;;;;5088496;28;20036;-75
2022/01/09 17:01:46;;;;;;;8.77;2.75;;;23.00;93.10;;;;;;5087603;28;20035;-75
2022/01/09 17:04:14;;;;;;;10.75;3.20;;;23.00;93.10;;;;;;5091388;28;20047;-75
2022/01/09 17:06:41;;;;;;;10.18;3.28;;;23.00;93.10;;;;;;5089895;28;20028;-75
2022/01/09 17:09:08;;;;;;;10.90;3.08;;;23.10;93.20;;;;;;5077627;28;20062;-75
2022/01/09 17:11:37;;;;;;;14.43;3.15;;;23.00;93.20;;;;;;5089656;28;20042;-75
2022/01/09 17:14:04;;;;;;;11.50;3.85;;;23.00;93.20;;;;;;5090131;28;20039;-74
2022/01/09 17:16:32;;;;;;;39.53;27.52;;;23.00;93.20;;;;;;5090049;28;20039;-76
2022/01/09 17:18:59;;;;;;;34.53;23.95;;;23.10;93.20;;;;;;5090483;28;20111;-76
2022/01/09 17:21:29;;;;;;;30.95;21.85;;;23.00;93.30;;;;;;5089852;28;20040;-76
2022/01/09 17:23:56;;;;;;;22.52;11.25;;;23.10;93.30;;;;;;5090711;28;20028;-76
2022/01/09 17:26:23;;;;;;;16.15;4.40;;;23.10;93.40;;;;;;5090022;28;20069;-76
2022/01/09 18:58:24;;;;;;;17.67;4.20;;;23.10;93.80;;;;;;5059693;28;20183;-73
2022/01/09 19:00:52;;;;;;;21.05;4.13;;;23.10;93.90;;;;;;5048639;28;20060;-73
2022/01/09 19:03:19;;;;;;;14.07;4.40;;;23.20;93.90;;;;;;5051336;28;20061;-73
2022/01/09 19:05:47;;;;;;;17.02;4.05;;;23.20;93.90;;;;;;5045656;28;20033;-74
2022/01/09 19:08:16;;;;;;;13.63;3.90;;;23.20;93.90;;;;;;5054761;28;20040;-75
2022/01/09 19:10:46;;;;;;;22.13;4.53;;;23.20;93.90;;;;;;5039365;28;20481;-74
2022/01/09 19:13:13;;;;;;;13.68;3.58;;;23.20;93.90;;;;;;5048294;28;20060;-75
2022/01/09 19:15:41;;;;;;;19.20;3.95;;;23.20;93.90;;;;;;5048053;28;20132;-75
2022/01/09 19:18:08;;;;;;;18.52;4.30;;;23.20;94.00;;;;;;5056414;28;20035;-74
2022/01/09 19:20:35;;;;;;;15.98;3.92;;;23.20;94.00;;;;;;5052316;28;20037;-74
2022/01/09 19:23:02;;;;;;;17.75;4.15;;;23.30;94.10;;;;;;5053705;28;20040;-73
2022/01/09 19:25:31;;;;;;;18.30;4.00;;;23.30;94.10;;;;;;5054827;28;20037;-75
2022/01/09 19:27:58;;;;;;;25.35;4.30;;;23.30;94.10;;;;;;5038720;28;20048;-75
2022/01/09 19:30:26;;;;;;;18.00;4.13;;;23.30;94.10;;;;;;5033957;28;20546;-75
2022/01/09 19:32:53;;;;;;;22.95;4.88;;;23.30;94.10;;;;;;5052179;28;20025;-77
2022/01/09 19:35:20;;;;;;;15.00;3.90;;;23.30;94.10;;;;;;5060102;28;20482;-74
2022/01/09 19:37:47;;;;;;;19.83;3.67;;;23.30;94.10;;;;;;5035558;28;20057;-73
2022/01/09 19:40:17;;;;;;;23.00;4.00;;;23.30;94.10;;;;;;5041380;28;20068;-75
2022/01/09 19:42:44;;;;;;;24.77;4.53;;;23.30;94.10;;;;;;5051330;28;20033;-74
2022/01/09 19:45:15;;;;;;;23.65;4.50;;;23.40;94.10;;;;;;5033473;28;20529;-79
2022/01/09 19:47:42;;;;;;;24.00;3.92;;;23.40;94.10;;;;;;5016526;28;20564;-77
2022/01/09 19:50:09;;;;;;;23.00;4.28;;;23.50;94.10;;;;;;5025907;28;20080;-83
2022/01/09 19:52:37;;;;;;;21.88;4.55;;;23.40;94.00;;;;;;5027005;28;20091;-78
2022/01/09 19:55:05;;;;;;;19.95;4.00;;;23.40;94.00;;;;;;5044590;28;20669;-76
2022/01/09 23:52:12;;;;;;;60.88;6.97;;;24.90;85.90;;;;;;5074100;28;20055;-75
2022/01/09 23:54:39;;;;;;;34.50;5.38;;;24.90;85.70;;;;;;5089242;28;20082;-75
2022/01/09 23:57:06;;;;;;;28.35;4.43;;;25.00;85.70;;;;;;5073817;28;20529;-75
2022/01/09 23:59:33;;;;;;;24.63;4.07;;;25.00;86.00;;;;;;5087690;28;21009;-75
